sensor_id;sensor_type;location;lat;lon;timestamp;temperature;humidity
18103;DHT22;9178;51.120;6.192;2022-12-20T00:01:12;11.80;99.90
18103;DHT22;9178;51.120;6.192;2022-12-20T00:03:40;11.80;99.90
18103;DHT22;9178;51.120;6.192;2022-12-20T00:06:11;11.90;99.90
18103;DHT22;9178;51.120;6.192;2022-12-20T00:08:40;11.90;99.90
18103;DHT22;9178;51.120;6.192;2022-12-20T00:11:08;12.00;99.90
18103;DHT22;9178;51.120;6.192;2022-12-20T00:13:35;12.00;99.90
18103;DHT22;9178;51.120;6.192;2022-12-20T00:16:05;12.00;99.90
18103;DHT22;9178;51.120;6.192;2022-12-20T00:18:32;12.00;99.90
18103;DHT22;9178;51.120;6.192;2022-12-20T00:21:00;12.00;99.90
18103;DHT22;9178;51.120;6.192;2022-12-20T00:23:28;12.00;99.90
18103;DHT22;9178;51.120;6.192;2022-12-20T00:26:02;12.00;99.90
18103;DHT22;9178;51.120;6.192;2022-12-20T00:28:30;12.00;99.90
18103;DHT22;9178;51.120;6.192;2022-12-20T00:30:58;12.10;99.90
18103;DHT22;9178;51.120;6.192;2022-12-20T00:33:26;12.10;99.90
18103;DHT22;9178;51.120;6.192;2022-12-20T00:35:54;12.10;99.90
18103;DHT22;9178;51.120;6.192;2022-12-20T00:38:21;12.10;99.90
18103;DHT22;9178;51.120;6.192;2022-12-20T00:40:59;12.10;99.90
18103;DHT22;9178;51.120;6.192;2022-12-20T00:43:29;12.10;99.90
18103;DHT22;9178;51.120;6.192;2022-12-20T00:45:56;12.10;99.90
18103;DHT22;9178;51.120;6.192;2022-12-20T00:48:24;12.20;99.90
18103;DHT22;9178;51.120;6.192;2022-12-20T00:50:51;12.20;99.90
18103;DHT22;9178;51.120;6.192;2022-12-20T00:53:18;12.20;99.90
18103;DHT22;9178;51.120;6.192;2022-12-20T00:55:46;12.20;99.90
18103;DHT22;9178;51.120;6.192;2022-12-20T00:58:13;12.20;99.90
18103;DHT22;9178;51.120;6.192;2022-12-20T01:00:41;12.20;99.90
18103;DHT22;9178;51.120;6.192;2022-12-20T01:03:09;12.20;99.90
18103;DHT22;9178;51.120;6.192;2022-12-20T01:05:37;12.30;99.90
18103;DHT22;9178;51.120;6.192;2022-12-20T01:08:04;12.20;99.90
18103;DHT22;9178;51.120;6.192;2022-12-20T01:10:31;12.30;99.90
18103;DHT22;9178;51.120;6.192;2022-12-20T01:12:59;12.20;99.90
18103;DHT22;9178;51.120;6.192;2022-12-20T01:15:26;12.20;99.90
18103;DHT22;9178;51.120;6.192;2022-12-20T01:17:55;12.10;99.90
18103;DHT22;9178;51.120;6.192;2022-12-20T01:20:22;12.10;99.90
18103;DHT22;9178;51.120;6.192;2022-12-20T01:22:49;12.20;99.90
18103;DHT22;9178;51.120;6.192;2022-12-20T01:25:16;12.20;99.90
18103;DHT22;9178;51.120;6.192;2022-12-20T01:27:43;12.10;99.90
18103;DHT22;9178;51.120;6.192;2022-12-20T01:30:11;12.10;99.90
18103;DHT22;9178;51.120;6.192;2022-12-20T01:32:38;12.10;99.90
18103;DHT22;9178;51.120;6.192;2022-12-20T01:35:07;12.10;99.90
18103;DHT22;9178;51.120;6.192;2022-12-20T01:37:34;12.10;99.90
18103;DHT22;9178;51.120;6.192;2022-12-20T01:40:01;12.10;99.90
18103;DHT22;9178;51.120;6.192;2022-12-20T01:42:28;12.10;99.90
18103;DHT22;9178;51.120;6.192;2022-12-20T01:44:58;12.10;99.90
18103;DHT22;9178;51.120;6.192;2022-12-20T01:47:28;12.10;99.90
18103;DHT22;9178;51.120;6.192;2022-12-20T01:49:57;12.10;99.90
18103;DHT22;9178;51.120;6.192;2022-12-20T01:52:33;12.10;99.90
18103;DHT22;9178;51.120;6.192;2022-12-20T01:55:05;12.10;99.90
18103;DHT22;9178;51.120;6.192;2022-12-20T01:57:37;12.10;99.90
18103;DHT22;9178;51.120;6.192;2022-12-20T02:00:07;12.10;99.90
18103;DHT22;9178;51.120;6.192;2022-12-20T02:02:35;12.00;99.90
18103;DHT22;9178;51.120;6.192;2022-12-20T02:05:04;12.00;99.90
18103;DHT22;9178;51.120;6.192;2022-12-20T02:07:33;12.00;99.90
18103;DHT22;9178;51.120;6.192;2022-12-20T02:10:02;11.90;99.90
18103;DHT22;9178;51.120;6.192;2022-12-20T02:12:35;11.90;99.90
18103;DHT22;9178;51.120;6.192;2022-12-20T02:15:31;11.90;99.90
18103;DHT22;9178;51.120;6.192;2022-12-20T02:18:15;11.90;99.90
18103;DHT22;9178;51.120;6.192;2022-12-20T02:24:13;11.90;99.90
18103;DHT22;9178;51.120;6.192;2022-12-20T02:29:39;11.90;99.90
18103;DHT22;9178;51.120;6.192;2022-12-20T02:32:17;11.90;99.90
18103;DHT22;9178;51.120;6.192;2022-12-20T02:34:48;11.80;99.90
18103;DHT22;9178;51.120;6.192;2022-12-20T02:37:16;11.80;99.90
18103;DHT22;9178;51.120;6.192;2022-12-20T02:39:44;11.70;99.90
18103;DHT22;9178;51.120;6.192;2022-12-20T02:42:14;11.70;99.90
18103;DHT22;9178;51.120;6.192;2022-12-20T02:44:45;11.60;99.90
18103;DHT22;9178;51.120;6.192;2022-12-20T02:47:34;11.50;99.90
18103;DHT22;9178;51.120;6.192;2022-12-20T02:50:03;11.50;99.90
18103;DHT22;9178;51.120;6.192;2022-12-20T02:52:32;11.50;99.90
18103;DHT22;9178;51.120;6.192;2022-12-20T02:55:00;11.40;99.90
18103;DHT22;9178;51.120;6.192;2022-12-20T02:57:31;11.40;99.90
18103;DHT22;9178;51.120;6.192;2022-12-20T03:00:03;11.40;99.90
18103;DHT22;9178;51.120;6.192;2022-12-20T03:02:32;11.40;99.90
18103;DHT22;9178;51.120;6.192;2022-12-20T03:05:22;11.30;99.90
18103;DHT22;9178;51.120;6.192;2022-12-20T03:07:50;11.30;99.90
18103;DHT22;9178;51.120;6.192;2022-12-20T03:10:18;11.30;99.90
18103;DHT22;9178;51.120;6.192;2022-12-20T03:12:45;11.30;99.90
18103;DHT22;9178;51.120;6.192;2022-12-20T03:15:12;11.30;99.90
18103;DHT22;9178;51.120;6.192;2022-12-20T03:17:41;11.30;99.90
18103;DHT22;9178;51.120;6.192;2022-12-20T03:20:09;11.20;99.90
18103;DHT22;9178;51.120;6.192;2022-12-20T03:22:37;11.20;99.90
18103;DHT22;9178;51.120;6.192;2022-12-20T03:25:05;11.20;99.90
18103;DHT22;9178;51.120;6.192;2022-12-20T03:27:32;11.20;99.90
18103;DHT22;9178;51.120;6.192;2022-12-20T03:29:59;11.10;99.90
18103;DHT22;9178;51.120;6.192;2022-12-20T03:32:26;11.10;99.90
18103;DHT22;9178;51.120;6.192;2022-12-20T03:34:55;11.10;99.90
18103;DHT22;9178;51.120;6.192;2022-12-20T03:37:23;11.00;99.90
18103;DHT22;9178;51.120;6.192;2022-12-20T03:39:49;10.90;99.90
18103;DHT22;9178;51.120;6.192;2022-12-20T03:42:17;10.90;99.90
18103;DHT22;9178;51.120;6.192;2022-12-20T03:44:43;10.80;99.90
18103;DHT22;9178;51.120;6.192;2022-12-20T03:47:10;10.80;99.90
18103;DHT22;9178;51.120;6.192;2022-12-20T03:49:38;10.70;99.90
18103;DHT22;9178;51.120;6.192;2022-12-20T03:52:08;10.70;99.90
18103;DHT22;9178;51.120;6.192;2022-12-20T03:54:35;10.70;99.90
18103;DHT22;9178;51.120;6.192;2022-12-20T03:57:02;10.60;99.90
18103;DHT22;9178;51.120;6.192;2022-12-20T03:59:32;10.60;99.90
18103;DHT22;9178;51.120;6.192;2022-12-20T04:02:00;10.50;99.90
18103;DHT22;9178;51.120;6.192;2022-12-20T04:04:27;10.50;99.90
18103;DHT22;9178;51.120;6.192;2022-12-20T04:06:54;10.50;99.90
18103;DHT22;9178;51.120;6.192;2022-12-20T04:09:22;10.40;99.90
18103;DHT22;9178;51.120;6.192;2022-12-20T04:11:50;10.40;99.90
18103;DHT22;9178;51.120;6.192;2022-12-20T04:14:16;10.40;99.90
18103;DHT22;9178;51.120;6.192;2022-12-20T04:16:44;10.40;99.90
18103;DHT22;9178;51.120;6.192;2022-12-20T04:19:11;10.50;99.90
18103;DHT22;9178;51.120;6.192;2022-12-20T04:21:38;10.50;99.90
18103;DHT22;9178;51.120;6.192;2022-12-20T04:24:06;10.50;99.90
18103;DHT22;9178;51.120;6.192;2022-12-20T04:26:37;10.40;99.90
18103;DHT22;9178;51.120;6.192;2022-12-20T04:29:04;10.40;99.90
18103;DHT22;9178;51.120;6.192;2022-12-20T04:31:31;10.40;99.90
18103;DHT22;9178;51.120;6.192;2022-12-20T04:33:58;10.40;99.90
18103;DHT22;9178;51.120;6.192;2022-12-20T04:36:24;10.40;99.90
18103;DHT22;9178;51.120;6.192;2022-12-20T04:38:51;10.30;99.90
18103;DHT22;9178;51.120;6.192;2022-12-20T04:41:19;10.30;99.90
18103;DHT22;9178;51.120;6.192;2022-12-20T04:43:52;10.30;99.90
18103;DHT22;9178;51.120;6.192;2022-12-20T04:46:20;10.20;99.90
18103;DHT22;9178;51.120;6.192;2022-12-20T04:48:48;10.30;99.90
18103;DHT22;9178;51.120;6.192;2022-12-20T04:51:15;10.30;99.90
18103;DHT22;9178;51.120;6.192;2022-12-20T04:53:42;10.20;99.90
18103;DHT22;9178;51.120;6.192;2022-12-20T04:56:19;10.30;99.90
18103;DHT22;9178;51.120;6.192;2022-12-20T04:58:49;10.30;99.90
18103;DHT22;9178;51.120;6.192;2022-12-20T05:01:19;10.30;99.90
18103;DHT22;9178;51.120;6.192;2022-12-20T05:03:46;10.30;99.90
18103;DHT22;9178;51.120;6.192;2022-12-20T05:06:15;10.30;99.90
18103;DHT22;9178;51.120;6.192;2022-12-20T05:08:42;10.30;99.90
18103;DHT22;9178;51.120;6.192;2022-12-20T05:11:12;10.30;99.90
18103;DHT22;9178;51.120;6.192;2022-12-20T05:13:40;10.30;99.90
18103;DHT22;9178;51.120;6.192;2022-12-20T05:16:07;10.30;99.90
18103;DHT22;9178;51.120;6.192;2022-12-20T05:18:35;10.30;99.90
18103;DHT22;9178;51.120;6.192;2022-12-20T05:21:03;10.30;99.90
18103;DHT22;9178;51.120;6.192;2022-12-20T05:23:48;10.40;99.90
18103;DHT22;9178;51.120;6.192;2022-12-20T05:26:34;10.40;99.90
18103;DHT22;9178;51.120;6.192;2022-12-20T05:29:02;10.40;99.90
18103;DHT22;9178;51.120;6.192;2022-12-20T05:31:29;10.50;99.90
18103;DHT22;9178;51.120;6.192;2022-12-20T05:33:58;10.60;99.90
18103;DHT22;9178;51.120;6.192;2022-12-20T05:36:25;10.60;99.90
18103;DHT22;9178;51.120;6.192;2022-12-20T05:38:52;10.60;99.90
18103;DHT22;9178;51.120;6.192;2022-12-20T05:41:19;10.60;99.90
18103;DHT22;9178;51.120;6.192;2022-12-20T05:43:46;10.60;99.90
18103;DHT22;9178;51.120;6.192;2022-12-20T05:46:13;10.60;99.90
18103;DHT22;9178;51.120;6.192;2022-12-20T05:48:40;10.60;99.90
18103;DHT22;9178;51.120;6.192;2022-12-20T05:51:09;10.70;99.90
18103;DHT22;9178;51.120;6.192;2022-12-20T05:53:36;10.60;99.90
18103;DHT22;9178;51.120;6.192;2022-12-20T05:56:03;10.70;99.90
18103;DHT22;9178;51.120;6.192;2022-12-20T05:58:30;10.70;99.90
18103;DHT22;9178;51.120;6.192;2022-12-20T06:00:59;10.70;99.90
18103;DHT22;9178;51.120;6.192;2022-12-20T06:03:26;10.70;99.90
18103;DHT22;9178;51.120;6.192;2022-12-20T06:05:54;10.60;99.90
18103;DHT22;9178;51.120;6.192;2022-12-20T06:08:22;10.70;99.90
18103;DHT22;9178;51.120;6.192;2022-12-20T06:10:50;10.60;99.90
18103;DHT22;9178;51.120;6.192;2022-12-20T06:13:17;10.70;99.90
18103;DHT22;9178;51.120;6.192;2022-12-20T06:15:44;10.70;99.90
18103;DHT22;9178;51.120;6.192;2022-12-20T06:18:11;10.80;99.90
18103;DHT22;9178;51.120;6.192;2022-12-20T06:20:38;10.80;99.90
18103;DHT22;9178;51.120;6.192;2022-12-20T06:23:05;10.80;99.90
18103;DHT22;9178;51.120;6.192;2022-12-20T06:25:36;10.80;99.90
18103;DHT22;9178;51.120;6.192;2022-12-20T06:28:04;10.80;99.90
18103;DHT22;9178;51.120;6.192;2022-12-20T06:30:32;10.90;99.90
18103;DHT22;9178;51.120;6.192;2022-12-20T06:32:59;10.90;99.90
18103;DHT22;9178;51.120;6.192;2022-12-20T06:35:26;11.00;99.90
18103;DHT22;9178;51.120;6.192;2022-12-20T06:37:54;11.00;99.90
18103;DHT22;9178;51.120;6.192;2022-12-20T06:40:21;11.00;99.90
18103;DHT22;9178;51.120;6.192;2022-12-20T06:42:50;11.10;99.90
18103;DHT22;9178;51.120;6.192;2022-12-20T06:45:17;11.10;99.90
18103;DHT22;9178;51.120;6.192;2022-12-20T06:47:44;11.00;99.90
18103;DHT22;9178;51.120;6.192;2022-12-20T06:50:11;10.90;99.90
18103;DHT22;9178;51.120;6.192;2022-12-20T06:52:38;11.10;99.90
18103;DHT22;9178;51.120;6.192;2022-12-20T06:55:06;11.10;99.90
18103;DHT22;9178;51.120;6.192;2022-12-20T06:57:33;11.10;99.90
18103;DHT22;9178;51.120;6.192;2022-12-20T07:00:02;11.20;99.90
18103;DHT22;9178;51.120;6.192;2022-12-20T07:02:29;11.20;99.90
18103;DHT22;9178;51.120;6.192;2022-12-20T07:04:56;11.20;99.90
18103;DHT22;9178;51.120;6.192;2022-12-20T07:07:23;11.20;99.90
18103;DHT22;9178;51.120;6.192;2022-12-20T07:09:50;11.30;99.90
18103;DHT22;9178;51.120;6.192;2022-12-20T07:12:17;11.30;99.90
18103;DHT22;9178;51.120;6.192;2022-12-20T07:14:43;11.40;99.90
18103;DHT22;9178;51.120;6.192;2022-12-20T07:17:12;11.30;99.90
18103;DHT22;9178;51.120;6.192;2022-12-20T07:19:39;11.40;99.90
18103;DHT22;9178;51.120;6.192;2022-12-20T07:22:06;11.40;99.90
18103;DHT22;9178;51.120;6.192;2022-12-20T07:24:33;11.50;99.90
18103;DHT22;9178;51.120;6.192;2022-12-20T07:27:00;11.50;99.90
18103;DHT22;9178;51.120;6.192;2022-12-20T07:29:27;11.50;99.90
18103;DHT22;9178;51.120;6.192;2022-12-20T07:31:54;11.50;99.90
18103;DHT22;9178;51.120;6.192;2022-12-20T07:34:23;11.40;99.90
18103;DHT22;9178;51.120;6.192;2022-12-20T07:36:50;11.40;99.90
18103;DHT22;9178;51.120;6.192;2022-12-20T07:39:17;11.40;99.90
18103;DHT22;9178;51.120;6.192;2022-12-20T07:41:45;11.40;99.90
18103;DHT22;9178;51.120;6.192;2022-12-20T07:44:12;11.40;99.90
18103;DHT22;9178;51.120;6.192;2022-12-20T07:46:39;11.40;99.90
18103;DHT22;9178;51.120;6.192;2022-12-20T07:49:05;11.40;99.90
18103;DHT22;9178;51.120;6.192;2022-12-20T07:51:36;11.40;99.90
18103;DHT22;9178;51.120;6.192;2022-12-20T07:54:08;11.40;99.90
18103;DHT22;9178;51.120;6.192;2022-12-20T07:56:40;11.50;99.90
18103;DHT22;9178;51.120;6.192;2022-12-20T07:59:09;11.50;99.90
18103;DHT22;9178;51.120;6.192;2022-12-20T08:01:37;11.50;99.90
18103;DHT22;9178;51.120;6.192;2022-12-20T08:04:07;11.50;99.90
18103;DHT22;9178;51.120;6.192;2022-12-20T08:06:40;11.60;99.90
18103;DHT22;9178;51.120;6.192;2022-12-20T08:09:08;11.50;99.90
18103;DHT22;9178;51.120;6.192;2022-12-20T08:11:39;11.50;99.90
18103;DHT22;9178;51.120;6.192;2022-12-20T08:14:07;11.50;99.90
18103;DHT22;9178;51.120;6.192;2022-12-20T08:16:34;11.50;99.90
18103;DHT22;9178;51.120;6.192;2022-12-20T08:19:01;11.50;99.90
18103;DHT22;9178;51.120;6.192;2022-12-20T08:21:29;11.60;99.90
18103;DHT22;9178;51.120;6.192;2022-12-20T08:23:58;11.60;99.90
18103;DHT22;9178;51.120;6.192;2022-12-20T08:26:25;11.60;99.90
18103;DHT22;9178;51.120;6.192;2022-12-20T08:28:53;11.60;99.90
18103;DHT22;9178;51.120;6.192;2022-12-20T08:31:20;11.70;99.90
18103;DHT22;9178;51.120;6.192;2022-12-20T08:33:47;11.70;99.90
18103;DHT22;9178;51.120;6.192;2022-12-20T08:36:14;11.70;99.90
18103;DHT22;9178;51.120;6.192;2022-12-20T08:38:41;11.70;99.90
18103;DHT22;9178;51.120;6.192;2022-12-20T08:41:11;11.70;99.90
18103;DHT22;9178;51.120;6.192;2022-12-20T08:43:39;11.80;99.90
18103;DHT22;9178;51.120;6.192;2022-12-20T08:46:07;11.80;99.90
18103;DHT22;9178;51.120;6.192;2022-12-20T08:48:35;11.80;99.90
18103;DHT22;9178;51.120;6.192;2022-12-20T08:51:03;11.90;99.90
18103;DHT22;9178;51.120;6.192;2022-12-20T08:53:31;11.80;99.90
18103;DHT22;9178;51.120;6.192;2022-12-20T08:56:03;11.90;99.90
18103;DHT22;9178;51.120;6.192;2022-12-20T08:58:33;11.90;99.90
18103;DHT22;9178;51.120;6.192;2022-12-20T09:01:02;11.90;99.90
18103;DHT22;9178;51.120;6.192;2022-12-20T09:03:30;11.90;99.90
18103;DHT22;9178;51.120;6.192;2022-12-20T09:05:57;11.90;99.90
18103;DHT22;9178;51.120;6.192;2022-12-20T09:08:26;11.90;99.90
18103;DHT22;9178;51.120;6.192;2022-12-20T09:10:53;11.90;99.90
18103;DHT22;9178;51.120;6.192;2022-12-20T09:13:20;11.80;99.90
18103;DHT22;9178;51.120;6.192;2022-12-20T09:15:48;11.80;99.90
18103;DHT22;9178;51.120;6.192;2022-12-20T09:18:15;11.80;99.90
18103;DHT22;9178;51.120;6.192;2022-12-20T09:20:42;11.80;99.90
18103;DHT22;9178;51.120;6.192;2022-12-20T09:23:11;11.70;99.90
18103;DHT22;9178;51.120;6.192;2022-12-20T09:25:38;11.70;99.90
18103;DHT22;9178;51.120;6.192;2022-12-20T09:28:05;11.70;99.90
18103;DHT22;9178;51.120;6.192;2022-12-20T09:30:32;11.70;99.90
18103;DHT22;9178;51.120;6.192;2022-12-20T09:33:00;11.70;99.90
18103;DHT22;9178;51.120;6.192;2022-12-20T09:35:27;11.80;99.90
18103;DHT22;9178;51.120;6.192;2022-12-20T09:37:54;11.80;99.90
18103;DHT22;9178;51.120;6.192;2022-12-20T09:40:24;11.80;99.90
18103;DHT22;9178;51.120;6.192;2022-12-20T09:42:52;11.80;99.90
18103;DHT22;9178;51.120;6.192;2022-12-20T09:45:25;11.90;99.90
18103;DHT22;9178;51.120;6.192;2022-12-20T09:47:53;11.90;99.90
18103;DHT22;9178;51.120;6.192;2022-12-20T09:50:34;11.90;99.90
18103;DHT22;9178;51.120;6.192;2022-12-20T09:53:12;12.00;99.90
18103;DHT22;9178;51.120;6.192;2022-12-20T09:55:47;12.00;99.90
18103;DHT22;9178;51.120;6.192;2022-12-20T09:58:35;12.00;99.90
18103;DHT22;9178;51.120;6.192;2022-12-20T10:01:15;12.00;99.90
18103;DHT22;9178;51.120;6.192;2022-12-20T10:03:42;12.00;99.90
18103;DHT22;9178;51.120;6.192;2022-12-20T10:06:17;12.00;99.90
18103;DHT22;9178;51.120;6.192;2022-12-20T10:08:49;12.00;99.90
18103;DHT22;9178;51.120;6.192;2022-12-20T10:11:38;12.00;99.90
18103;DHT22;9178;51.120;6.192;2022-12-20T10:14:19;12.10;99.90
18103;DHT22;9178;51.120;6.192;2022-12-20T10:16:52;12.10;99.90
18103;DHT22;9178;51.120;6.192;2022-12-20T10:19:56;12.20;99.90
18103;DHT22;9178;51.120;6.192;2022-12-20T10:22:31;12.20;99.90
18103;DHT22;9178;51.120;6.192;2022-12-20T10:25:05;12.20;99.90
18103;DHT22;9178;51.120;6.192;2022-12-20T10:27:40;12.30;99.90
18103;DHT22;9178;51.120;6.192;2022-12-20T10:30:12;12.30;99.90
18103;DHT22;9178;51.120;6.192;2022-12-20T10:32:42;12.30;99.90
18103;DHT22;9178;51.120;6.192;2022-12-20T10:35:24;12.30;99.90
18103;DHT22;9178;51.120;6.192;2022-12-20T10:38:00;12.30;99.90
18103;DHT22;9178;51.120;6.192;2022-12-20T10:40:30;12.40;99.90
18103;DHT22;9178;51.120;6.192;2022-12-20T10:42:57;12.40;99.90
18103;DHT22;9178;51.120;6.192;2022-12-20T10:45:33;12.50;99.90
18103;DHT22;9178;51.120;6.192;2022-12-20T10:48:03;12.50;99.90
18103;DHT22;9178;51.120;6.192;2022-12-20T10:50:30;12.50;99.90
18103;DHT22;9178;51.120;6.192;2022-12-20T10:53:21;12.50;99.90
18103;DHT22;9178;51.120;6.192;2022-12-20T10:55:49;12.60;99.90
18103;DHT22;9178;51.120;6.192;2022-12-20T10:58:20;12.60;99.90
18103;DHT22;9178;51.120;6.192;2022-12-20T11:00:47;12.60;99.90
18103;DHT22;9178;51.120;6.192;2022-12-20T11:03:17;12.60;99.90
18103;DHT22;9178;51.120;6.192;2022-12-20T11:05:53;12.60;99.90
18103;DHT22;9178;51.120;6.192;2022-12-20T11:08:23;12.60;99.90
18103;DHT22;9178;51.120;6.192;2022-12-20T11:11:10;12.60;99.90
18103;DHT22;9178;51.120;6.192;2022-12-20T11:13:38;12.60;99.90
18103;DHT22;9178;51.120;6.192;2022-12-20T11:16:08;12.60;99.90
18103;DHT22;9178;51.120;6.192;2022-12-20T11:18:53;12.60;99.90
18103;DHT22;9178;51.120;6.192;2022-12-20T11:21:28;12.60;99.90
18103;DHT22;9178;51.120;6.192;2022-12-20T11:24:04;12.70;99.90
18103;DHT22;9178;51.120;6.192;2022-12-20T11:26:53;12.70;99.90
18103;DHT22;9178;51.120;6.192;2022-12-20T11:29:39;12.70;99.90
18103;DHT22;9178;51.120;6.192;2022-12-20T11:32:14;12.70;99.90
18103;DHT22;9178;51.120;6.192;2022-12-20T11:34:49;12.70;99.90
18103;DHT22;9178;51.120;6.192;2022-12-20T11:37:20;12.80;99.90
18103;DHT22;9178;51.120;6.192;2022-12-20T11:40:04;12.80;99.90
18103;DHT22;9178;51.120;6.192;2022-12-20T11:42:48;12.80;99.90
18103;DHT22;9178;51.120;6.192;2022-12-20T11:45:23;12.80;99.90
18103;DHT22;9178;51.120;6.192;2022-12-20T11:48:03;12.80;99.90
18103;DHT22;9178;51.120;6.192;2022-12-20T11:50:44;12.80;99.90
18103;DHT22;9178;51.120;6.192;2022-12-20T11:53:19;12.90;99.90
18103;DHT22;9178;51.120;6.192;2022-12-20T11:55:52;12.90;99.90
18103;DHT22;9178;51.120;6.192;2022-12-20T11:58:23;12.90;99.90
18103;DHT22;9178;51.120;6.192;2022-12-20T12:00:55;12.90;99.90
18103;DHT22;9178;51.120;6.192;2022-12-20T12:03:27;12.90;99.90
18103;DHT22;9178;51.120;6.192;2022-12-20T12:05:59;12.80;99.90
18103;DHT22;9178;51.120;6.192;2022-12-20T12:08:34;12.80;99.90
18103;DHT22;9178;51.120;6.192;2022-12-20T12:11:11;12.70;99.90
18103;DHT22;9178;51.120;6.192;2022-12-20T12:13:41;12.60;99.90
18103;DHT22;9178;51.120;6.192;2022-12-20T12:16:11;12.50;99.90
18103;DHT22;9178;51.120;6.192;2022-12-20T12:18:43;12.40;99.90
18103;DHT22;9178;51.120;6.192;2022-12-20T12:21:17;12.20;99.90
18103;DHT22;9178;51.120;6.192;2022-12-20T12:23:55;12.10;99.90
18103;DHT22;9178;51.120;6.192;2022-12-20T12:26:28;11.90;99.90
18103;DHT22;9178;51.120;6.192;2022-12-20T12:29:00;11.80;99.90
18103;DHT22;9178;51.120;6.192;2022-12-20T12:31:34;11.70;99.90
18103;DHT22;9178;51.120;6.192;2022-12-20T12:34:08;11.60;99.90
18103;DHT22;9178;51.120;6.192;2022-12-20T12:37:07;11.60;99.90
18103;DHT22;9178;51.120;6.192;2022-12-20T12:40:05;11.60;99.90
18103;DHT22;9178;51.120;6.192;2022-12-20T12:43:01;11.50;99.90
18103;DHT22;9178;51.120;6.192;2022-12-20T12:45:35;11.50;99.90
18103;DHT22;9178;51.120;6.192;2022-12-20T12:48:06;11.40;99.90
18103;DHT22;9178;51.120;6.192;2022-12-20T12:50:41;11.40;99.90
18103;DHT22;9178;51.120;6.192;2022-12-20T12:53:13;11.40;99.90
18103;DHT22;9178;51.120;6.192;2022-12-20T12:55:43;11.40;99.90
18103;DHT22;9178;51.120;6.192;2022-12-20T12:58:42;11.40;99.90
18103;DHT22;9178;51.120;6.192;2022-12-20T13:01:10;11.40;99.90
18103;DHT22;9178;51.120;6.192;2022-12-20T13:03:43;11.40;99.90
18103;DHT22;9178;51.120;6.192;2022-12-20T13:06:42;11.40;99.90
18103;DHT22;9178;51.120;6.192;2022-12-20T13:09:34;11.40;99.90
18103;DHT22;9178;51.120;6.192;2022-12-20T13:18:28;11.30;99.90
18103;DHT22;9178;51.120;6.192;2022-12-20T13:24:49;11.30;99.90
18103;DHT22;9178;51.120;6.192;2022-12-20T13:27:34;11.20;99.90
18103;DHT22;9178;51.120;6.192;2022-12-20T13:33:22;11.20;99.90
18103;DHT22;9178;51.120;6.192;2022-12-20T13:36:00;11.20;99.90
18103;DHT22;9178;51.120;6.192;2022-12-20T13:38:49;11.20;99.90
18103;DHT22;9178;51.120;6.192;2022-12-20T13:41:39;11.10;99.90
18103;DHT22;9178;51.120;6.192;2022-12-20T13:44:34;11.10;99.90
18103;DHT22;9178;51.120;6.192;2022-12-20T13:49:47;11.10;99.90
18103;DHT22;9178;51.120;6.192;2022-12-20T13:52:23;11.10;99.90
18103;DHT22;9178;51.120;6.192;2022-12-20T13:54:54;11.00;99.90
18103;DHT22;9178;51.120;6.192;2022-12-20T13:57:27;11.00;99.90
18103;DHT22;9178;51.120;6.192;2022-12-20T13:59:57;11.00;99.90
18103;DHT22;9178;51.120;6.192;2022-12-20T14:02:28;11.00;99.90
18103;DHT22;9178;51.120;6.192;2022-12-20T14:04:59;11.00;99.90
18103;DHT22;9178;51.120;6.192;2022-12-20T14:07:29;11.00;99.90
18103;DHT22;9178;51.120;6.192;2022-12-20T14:10:00;10.90;99.90
18103;DHT22;9178;51.120;6.192;2022-12-20T14:12:28;10.90;99.90
18103;DHT22;9178;51.120;6.192;2022-12-20T14:14:56;10.90;99.90
18103;DHT22;9178;51.120;6.192;2022-12-20T14:17:25;10.90;99.90
18103;DHT22;9178;51.120;6.192;2022-12-20T14:22:52;10.90;99.90
18103;DHT22;9178;51.120;6.192;2022-12-20T14:25:28;10.90;99.90
18103;DHT22;9178;51.120;6.192;2022-12-20T14:27:56;10.90;99.90
18103;DHT22;9178;51.120;6.192;2022-12-20T14:30:32;10.90;99.90
18103;DHT22;9178;51.120;6.192;2022-12-20T14:33:01;10.80;99.90
18103;DHT22;9178;51.120;6.192;2022-12-20T14:35:28;10.80;99.90
18103;DHT22;9178;51.120;6.192;2022-12-20T14:37:58;10.80;99.90
18103;DHT22;9178;51.120;6.192;2022-12-20T14:40:27;10.80;99.90
18103;DHT22;9178;51.120;6.192;2022-12-20T14:42:55;10.80;99.90
18103;DHT22;9178;51.120;6.192;2022-12-20T14:45:24;10.80;99.90
18103;DHT22;9178;51.120;6.192;2022-12-20T14:48:00;10.80;99.90
18103;DHT22;9178;51.120;6.192;2022-12-20T14:50:30;10.80;99.90
18103;DHT22;9178;51.120;6.192;2022-12-20T14:53:00;10.80;99.90
18103;DHT22;9178;51.120;6.192;2022-12-20T14:55:31;10.80;99.90
18103;DHT22;9178;51.120;6.192;2022-12-20T14:57:59;10.80;99.90
18103;DHT22;9178;51.120;6.192;2022-12-20T15:00:28;10.80;99.90
18103;DHT22;9178;51.120;6.192;2022-12-20T15:03:02;10.80;99.90
18103;DHT22;9178;51.120;6.192;2022-12-20T15:05:48;10.80;99.90
18103;DHT22;9178;51.120;6.192;2022-12-20T15:08:19;10.70;99.90
18103;DHT22;9178;51.120;6.192;2022-12-20T15:10:50;10.70;99.90
18103;DHT22;9178;51.120;6.192;2022-12-20T15:13:19;10.70;99.90
18103;DHT22;9178;51.120;6.192;2022-12-20T15:15:47;10.70;99.90
18103;DHT22;9178;51.120;6.192;2022-12-20T15:18:15;10.80;99.90
18103;DHT22;9178;51.120;6.192;2022-12-20T15:20:44;10.80;99.90
18103;DHT22;9178;51.120;6.192;2022-12-20T15:23:14;10.70;99.90
18103;DHT22;9178;51.120;6.192;2022-12-20T15:25:43;10.70;99.90
18103;DHT22;9178;51.120;6.192;2022-12-20T15:28:16;10.70;99.90
18103;DHT22;9178;51.120;6.192;2022-12-20T15:30:43;10.70;99.90
18103;DHT22;9178;51.120;6.192;2022-12-20T15:33:16;10.70;99.90
18103;DHT22;9178;51.120;6.192;2022-12-20T15:35:44;10.70;99.90
18103;DHT22;9178;51.120;6.192;2022-12-20T15:38:13;10.70;99.90
18103;DHT22;9178;51.120;6.192;2022-12-20T15:40:44;10.70;99.90
18103;DHT22;9178;51.120;6.192;2022-12-20T15:43:12;10.70;99.90
18103;DHT22;9178;51.120;6.192;2022-12-20T15:45:41;10.70;99.90
18103;DHT22;9178;51.120;6.192;2022-12-20T15:48:14;10.70;99.90
18103;DHT22;9178;51.120;6.192;2022-12-20T15:50:47;10.80;99.90
18103;DHT22;9178;51.120;6.192;2022-12-20T15:53:16;10.80;99.90
18103;DHT22;9178;51.120;6.192;2022-12-20T15:55:50;10.80;99.90
18103;DHT22;9178;51.120;6.192;2022-12-20T15:58:17;10.80;99.90
18103;DHT22;9178;51.120;6.192;2022-12-20T16:00:44;10.80;99.90
18103;DHT22;9178;51.120;6.192;2022-12-20T16:03:16;10.70;99.90
18103;DHT22;9178;51.120;6.192;2022-12-20T16:05:45;10.80;99.90
18103;DHT22;9178;51.120;6.192;2022-12-20T16:08:12;10.70;99.90
18103;DHT22;9178;51.120;6.192;2022-12-20T16:10:41;10.70;99.90
18103;DHT22;9178;51.120;6.192;2022-12-20T16:13:13;10.70;99.90
18103;DHT22;9178;51.120;6.192;2022-12-20T16:15:40;10.70;99.90
18103;DHT22;9178;51.120;6.192;2022-12-20T16:18:07;10.70;99.90
18103;DHT22;9178;51.120;6.192;2022-12-20T16:20:34;10.70;99.90
18103;DHT22;9178;51.120;6.192;2022-12-20T16:23:01;10.70;99.90
18103;DHT22;9178;51.120;6.192;2022-12-20T16:25:30;10.70;99.90
18103;DHT22;9178;51.120;6.192;2022-12-20T16:27:58;10.70;99.90
18103;DHT22;9178;51.120;6.192;2022-12-20T16:30:27;10.70;99.90
18103;DHT22;9178;51.120;6.192;2022-12-20T16:32:54;10.70;99.90